sensor_id;sensor_type;location;lat;lon;timestamp;temperature;humidity
1534;DHT22;760;48.822;9.304;2023-03-01T05:05:50;1.50;99.90
1534;DHT22;760;48.822;9.304;2023-03-01T05:08:16;1.50;99.90
1534;DHT22;760;48.822;9.304;2023-03-01T05:10:50;1.60;99.90
1534;DHT22;760;48.822;9.304;2023-03-01T05:13:17;1.50;99.90
1534;DHT22;760;48.822;9.304;2023-03-01T05:15:55;1.50;99.90
1534;DHT22;760;48.822;9.304;2023-03-01T05:18:21;1.50;99.90
1534;DHT22;760;48.822;9.304;2023-03-01T05:20:54;1.40;99.90
1534;DHT22;760;48.822;9.304;2023-03-01T05:23:22;1.40;99.90
1534;DHT22;760;48.822;9.304;2023-03-01T05:25:48;1.40;99.90
1534;DHT22;760;48.822;9.304;2023-03-01T05:28:14;1.40;99.90
1534;DHT22;760;48.822;9.304;2023-03-01T05:30:40;1.40;99.90
1534;DHT22;760;48.822;9.304;2023-03-01T05:33:07;1.40;99.90
1534;DHT22;760;48.822;9.304;2023-03-01T05:35:42;1.30;99.90
1534;DHT22;760;48.822;9.304;2023-03-01T05:38:10;1.40;99.90
1534;DHT22;760;48.822;9.304;2023-03-01T05:40:40;1.40;99.90
1534;DHT22;760;48.822;9.304;2023-03-01T05:43:06;1.40;99.90
1534;DHT22;760;48.822;9.304;2023-03-01T05:45:32;1.30;99.90
1534;DHT22;760;48.822;9.304;2023-03-01T05:47:58;1.30;99.90
1534;DHT22;760;48.822;9.304;2023-03-01T05:50:26;1.30;99.90
1534;DHT22;760;48.822;9.304;2023-03-01T05:52:57;1.20;99.90
1534;DHT22;760;48.822;9.304;2023-03-01T05:55:23;1.10;99.90
1534;DHT22;760;48.822;9.304;2023-03-01T05:57:49;1.10;99.90
1534;DHT22;760;48.822;9.304;2023-03-01T06:00:20;1.20;99.90
1534;DHT22;760;48.822;9.304;2023-03-01T06:02:47;1.10;99.90
1534;DHT22;760;48.822;9.304;2023-03-01T06:05:13;1.20;99.90
1534;DHT22;760;48.822;9.304;2023-03-01T06:07:39;1.20;99.90
1534;DHT22;760;48.822;9.304;2023-03-01T06:10:06;1.20;99.90
1534;DHT22;760;48.822;9.304;2023-03-01T06:12:36;1.10;99.90
1534;DHT22;760;48.822;9.304;2023-03-01T06:15:03;1.20;99.90
1534;DHT22;760;48.822;9.304;2023-03-01T06:17:31;1.10;99.90
1534;DHT22;760;48.822;9.304;2023-03-01T06:19:57;1.10;99.90
1534;DHT22;760;48.822;9.304;2023-03-01T06:22:23;1.10;99.90
1534;DHT22;760;48.822;9.304;2023-03-01T06:24:49;1.10;99.90
1534;DHT22;760;48.822;9.304;2023-03-01T06:27:15;1.10;99.90
1534;DHT22;760;48.822;9.304;2023-03-01T06:29:41;1.20;99.90
1534;DHT22;760;48.822;9.304;2023-03-01T06:32:06;1.20;99.90
1534;DHT22;760;48.822;9.304;2023-03-01T06:34:33;1.30;99.90
1534;DHT22;760;48.822;9.304;2023-03-01T06:36:59;1.30;99.90
1534;DHT22;760;48.822;9.304;2023-03-01T06:39:24;1.40;99.90
1534;DHT22;760;48.822;9.304;2023-03-01T06:41:50;1.50;99.90
1534;DHT22;760;48.822;9.304;2023-03-01T06:44:16;1.60;99.90
1534;DHT22;760;48.822;9.304;2023-03-01T06:46:41;1.60;99.90
1534;DHT22;760;48.822;9.304;2023-03-01T06:49:07;1.60;99.90
1534;DHT22;760;48.822;9.304;2023-03-01T06:51:35;1.70;99.90
1534;DHT22;760;48.822;9.304;2023-03-01T06:54:03;1.80;99.90
1534;DHT22;760;48.822;9.304;2023-03-01T06:56:29;2.00;99.90
1534;DHT22;760;48.822;9.304;2023-03-01T06:58:55;2.20;99.90
1534;DHT22;760;48.822;9.304;2023-03-01T07:01:20;2.50;99.90
1534;DHT22;760;48.822;9.304;2023-03-01T07:03:46;2.70;99.90
1534;DHT22;760;48.822;9.304;2023-03-01T07:06:11;3.00;99.90
1534;DHT22;760;48.822;9.304;2023-03-01T07:08:37;3.30;99.90
1534;DHT22;760;48.822;9.304;2023-03-01T07:11:02;3.60;99.90
1534;DHT22;760;48.822;9.304;2023-03-01T07:13:29;3.90;99.90
1534;DHT22;760;48.822;9.304;2023-03-01T07:15:55;4.40;99.80
1534;DHT22;760;48.822;9.304;2023-03-01T07:18:20;4.70;98.70
1534;DHT22;760;48.822;9.304;2023-03-01T07:20:46;5.20;98.60
1534;DHT22;760;48.822;9.304;2023-03-01T07:23:12;5.50;97.00
1534;DHT22;760;48.822;9.304;2023-03-01T07:25:37;5.50;96.00
1534;DHT22;760;48.822;9.304;2023-03-01T07:28:03;5.50;95.90
1534;DHT22;760;48.822;9.304;2023-03-01T07:30:29;5.50;95.90
1534;DHT22;760;48.822;9.304;2023-03-01T07:32:55;5.50;95.50
1534;DHT22;760;48.822;9.304;2023-03-01T07:35:22;5.60;95.90
1534;DHT22;760;48.822;9.304;2023-03-01T07:37:48;5.80;95.30
1534;DHT22;760;48.822;9.304;2023-03-01T07:40:14;6.10;95.30
1534;DHT22;760;48.822;9.304;2023-03-01T07:42:39;6.40;94.30
1534;DHT22;760;48.822;9.304;2023-03-01T07:45:05;6.60;94.00
1534;DHT22;760;48.822;9.304;2023-03-01T07:47:32;6.80;93.70
1534;DHT22;760;48.822;9.304;2023-03-01T07:49:57;7.00;93.30
1534;DHT22;760;48.822;9.304;2023-03-01T07:52:23;7.30;93.20
1534;DHT22;760;48.822;9.304;2023-03-01T07:54:49;7.70;92.40
1534;DHT22;760;48.822;9.304;2023-03-01T07:57:15;8.10;91.60
1534;DHT22;760;48.822;9.304;2023-03-01T07:59:40;8.40;90.40
1534;DHT22;760;48.822;9.304;2023-03-01T08:02:07;8.40;90.60
1534;DHT22;760;48.822;9.304;2023-03-01T08:04:33;8.70;90.40
1534;DHT22;760;48.822;9.304;2023-03-01T08:06:59;9.00;90.20
1534;DHT22;760;48.822;9.304;2023-03-01T08:09:25;9.50;87.70
1534;DHT22;760;48.822;9.304;2023-03-01T08:11:50;9.70;86.10
1534;DHT22;760;48.822;9.304;2023-03-01T08:14:16;10.10;84.30
1534;DHT22;760;48.822;9.304;2023-03-01T08:16:42;10.10;82.40
1534;DHT22;760;48.822;9.304;2023-03-01T08:19:09;9.90;84.90
1534;DHT22;760;48.822;9.304;2023-03-01T08:21:37;10.20;82.20
1534;DHT22;760;48.822;9.304;2023-03-01T08:24:04;10.20;80.30
1534;DHT22;760;48.822;9.304;2023-03-01T08:26:31;10.30;79.80
1534;DHT22;760;48.822;9.304;2023-03-01T08:28:56;10.50;80.20
1534;DHT22;760;48.822;9.304;2023-03-01T08:31:27;10.90;79.60
1534;DHT22;760;48.822;9.304;2023-03-01T08:33:56;10.90;78.60
1534;DHT22;760;48.822;9.304;2023-03-01T08:36:24;10.70;78.10
1534;DHT22;760;48.822;9.304;2023-03-01T08:38:50;10.80;77.90
1534;DHT22;760;48.822;9.304;2023-03-01T08:41:16;11.00;77.40
1534;DHT22;760;48.822;9.304;2023-03-01T08:43:41;10.90;76.50
1534;DHT22;760;48.822;9.304;2023-03-01T08:46:07;11.10;77.60
1534;DHT22;760;48.822;9.304;2023-03-01T08:48:32;11.30;76.50
1534;DHT22;760;48.822;9.304;2023-03-01T08:51:08;11.70;76.00
1534;DHT22;760;48.822;9.304;2023-03-01T08:53:34;12.10;75.30
1534;DHT22;760;48.822;9.304;2023-03-01T08:56:03;12.10;75.20
1534;DHT22;760;48.822;9.304;2023-03-01T08:58:29;12.20;73.60
1534;DHT22;760;48.822;9.304;2023-03-01T09:00:55;12.10;73.20
1534;DHT22;760;48.822;9.304;2023-03-01T09:03:22;12.20;73.50
1534;DHT22;760;48.822;9.304;2023-03-01T09:05:48;12.40;72.40
1534;DHT22;760;48.822;9.304;2023-03-01T09:08:16;12.40;71.80
1534;DHT22;760;48.822;9.304;2023-03-01T09:10:41;12.50;71.10
1534;DHT22;760;48.822;9.304;2023-03-01T09:13:07;12.50;71.40
1534;DHT22;760;48.822;9.304;2023-03-01T09:15:33;12.50;71.70
1534;DHT22;760;48.822;9.304;2023-03-01T09:17:59;12.90;71.80
1534;DHT22;760;48.822;9.304;2023-03-01T09:20:25;13.40;70.70
1534;DHT22;760;48.822;9.304;2023-03-01T09:22:51;13.90;70.40
1534;DHT22;760;48.822;9.304;2023-03-01T09:25:16;14.40;69.50
1534;DHT22;760;48.822;9.304;2023-03-01T09:27:42;14.70;68.10
1534;DHT22;760;48.822;9.304;2023-03-01T09:30:08;15.00;67.70
1534;DHT22;760;48.822;9.304;2023-03-01T09:32:34;15.40;66.90
1534;DHT22;760;48.822;9.304;2023-03-01T09:35:00;15.80;65.70
1534;DHT22;760;48.822;9.304;2023-03-01T09:37:35;16.20;62.20
1534;DHT22;760;48.822;9.304;2023-03-01T09:40:02;16.40;60.70
1534;DHT22;760;48.822;9.304;2023-03-01T09:42:32;16.20;59.80
1534;DHT22;760;48.822;9.304;2023-03-01T09:45:04;16.00;59.60
1534;DHT22;760;48.822;9.304;2023-03-01T09:47:32;15.60;59.90
1534;DHT22;760;48.822;9.304;2023-03-01T09:50:11;15.30;60.00
1534;DHT22;760;48.822;9.304;2023-03-01T09:52:43;15.00;60.40
1534;DHT22;760;48.822;9.304;2023-03-01T09:55:14;14.80;60.80
1534;DHT22;760;48.822;9.304;2023-03-01T09:57:53;14.50;61.20
1534;DHT22;760;48.822;9.304;2023-03-01T10:00:33;14.40;62.20
1534;DHT22;760;48.822;9.304;2023-03-01T10:03:17;14.50;61.80
1534;DHT22;760;48.822;9.304;2023-03-01T10:08:37;14.90;61.00
1534;DHT22;760;48.822;9.304;2023-03-01T10:11:05;14.70;60.70
1534;DHT22;760;48.822;9.304;2023-03-01T10:14:07;14.70;61.20
1534;DHT22;760;48.822;9.304;2023-03-01T10:19:27;14.30;61.70
1534;DHT22;760;48.822;9.304;2023-03-01T10:22:00;14.50;62.20
1534;DHT22;760;48.822;9.304;2023-03-01T10:24:33;14.90;61.30
1534;DHT22;760;48.822;9.304;2023-03-01T10:32:42;14.40;61.40
1534;DHT22;760;48.822;9.304;2023-03-01T10:35:27;14.40;61.90
1534;DHT22;760;48.822;9.304;2023-03-01T10:38:03;14.30;61.20
1534;DHT22;760;48.822;9.304;2023-03-01T10:40:31;14.10;61.90
1534;DHT22;760;48.822;9.304;2023-03-01T10:43:02;14.00;62.60
1534;DHT22;760;48.822;9.304;2023-03-01T10:50:44;14.10;62.10
1534;DHT22;760;48.822;9.304;2023-03-01T10:53:26;14.10;61.60
1534;DHT22;760;48.822;9.304;2023-03-01T10:56:13;14.20;61.30
1534;DHT22;760;48.822;9.304;2023-03-01T10:58:56;14.20;61.70
1534;DHT22;760;48.822;9.304;2023-03-01T11:01:26;14.10;62.00
1534;DHT22;760;48.822;9.304;2023-03-01T11:06:33;13.90;62.50
1534;DHT22;760;48.822;9.304;2023-03-01T11:09:14;13.90;62.00
1534;DHT22;760;48.822;9.304;2023-03-01T11:11:40;13.90;62.00
1534;DHT22;760;48.822;9.304;2023-03-01T11:17:05;13.60;62.80
1534;DHT22;760;48.822;9.304;2023-03-01T11:19:32;13.60;63.00
1534;DHT22;760;48.822;9.304;2023-03-01T11:22:18;13.30;63.00
1534;DHT22;760;48.822;9.304;2023-03-01T11:24:51;13.10;63.70
1534;DHT22;760;48.822;9.304;2023-03-01T11:27:23;12.90;64.00
1534;DHT22;760;48.822;9.304;2023-03-01T11:32:24;11.50;65.50
1534;DHT22;760;48.822;9.304;2023-03-01T11:35:00;10.60;68.10
1534;DHT22;760;48.822;9.304;2023-03-01T11:37:41;10.00;69.00
1534;DHT22;760;48.822;9.304;2023-03-01T11:40:25;9.60;71.40
1534;DHT22;760;48.822;9.304;2023-03-01T11:43:20;9.10;72.90
1534;DHT22;760;48.822;9.304;2023-03-01T11:45:57;8.90;74.40
1534;DHT22;760;48.822;9.304;2023-03-01T11:48:43;8.70;75.30
1534;DHT22;760;48.822;9.304;2023-03-01T11:54:22;8.20;76.80
1534;DHT22;760;48.822;9.304;2023-03-01T11:57:04;8.00;77.70
1534;DHT22;760;48.822;9.304;2023-03-01T12:22:29;7.90;80.50
1534;DHT22;760;48.822;9.304;2023-03-01T12:25:10;8.00;81.20
1534;DHT22;760;48.822;9.304;2023-03-01T12:27:54;8.10;80.40
1534;DHT22;760;48.822;9.304;2023-03-01T12:33:18;8.10;80.30
1534;DHT22;760;48.822;9.304;2023-03-01T12:35:58;8.20;80.30
1534;DHT22;760;48.822;9.304;2023-03-01T12:38:50;8.10;80.10
1534;DHT22;760;48.822;9.304;2023-03-01T12:50:03;8.20;81.20
1534;DHT22;760;48.822;9.304;2023-03-01T12:52:39;8.30;80.80
1534;DHT22;760;48.822;9.304;2023-03-01T12:55:32;8.30;80.60
1534;DHT22;760;48.822;9.304;2023-03-01T13:00:28;8.30;80.40
1534;DHT22;760;48.822;9.304;2023-03-01T13:03:27;8.30;80.80
1534;DHT22;760;48.822;9.304;2023-03-01T13:08:33;8.50;80.60
1534;DHT22;760;48.822;9.304;2023-03-01T13:11:04;8.50;80.30
1534;DHT22;760;48.822;9.304;2023-03-01T13:13:31;8.50;80.80
1534;DHT22;760;48.822;9.304;2023-03-01T13:15:57;8.60;80.70
1534;DHT22;760;48.822;9.304;2023-03-01T13:18:42;8.60;80.70
1534;DHT22;760;48.822;9.304;2023-03-01T13:21:08;8.80;81.00
1534;DHT22;760;48.822;9.304;2023-03-01T13:23:37;8.80;80.40
1534;DHT22;760;48.822;9.304;2023-03-01T13:26:13;8.80;80.20
1534;DHT22;760;48.822;9.304;2023-03-01T13:33:55;8.70;80.30
1534;DHT22;760;48.822;9.304;2023-03-01T13:36:47;8.60;80.20
1534;DHT22;760;48.822;9.304;2023-03-01T13:39:31;8.60;80.40
1534;DHT22;760;48.822;9.304;2023-03-01T13:41:59;8.60;81.20
1534;DHT22;760;48.822;9.304;2023-03-01T13:44:38;8.70;81.80
1534;DHT22;760;48.822;9.304;2023-03-01T13:49:58;8.60;81.10
1534;DHT22;760;48.822;9.304;2023-03-01T13:52:43;8.60;82.00
1534;DHT22;760;48.822;9.304;2023-03-01T13:57:45;8.50;82.80
1534;DHT22;760;48.822;9.304;2023-03-01T14:00:36;8.40;84.00
1534;DHT22;760;48.822;9.304;2023-03-01T14:05:38;8.40;84.10
1534;DHT22;760;48.822;9.304;2023-03-01T14:08:13;8.40;84.30
1534;DHT22;760;48.822;9.304;2023-03-01T14:19:29;8.40;83.40
1534;DHT22;760;48.822;9.304;2023-03-01T14:25:02;8.40;82.90
1534;DHT22;760;48.822;9.304;2023-03-01T14:27:39;8.40;82.80
1534;DHT22;760;48.822;9.304;2023-03-01T14:30:44;8.40;82.70
1534;DHT22;760;48.822;9.304;2023-03-01T14:38:38;8.30;83.10
1534;DHT22;760;48.822;9.304;2023-03-01T14:41:15;8.30;83.30
1534;DHT22;760;48.822;9.304;2023-03-01T14:43:46;8.30;83.90
1534;DHT22;760;48.822;9.304;2023-03-01T14:46:34;8.30;84.20
1534;DHT22;760;48.822;9.304;2023-03-01T14:51:40;8.30;85.10
1534;DHT22;760;48.822;9.304;2023-03-01T14:54:26;8.30;84.80
1534;DHT22;760;48.822;9.304;2023-03-01T14:56:57;8.30;84.60
1534;DHT22;760;48.822;9.304;2023-03-01T14:59:23;8.30;84.80
1534;DHT22;760;48.822;9.304;2023-03-01T15:01:51;8.30;85.30
1534;DHT22;760;48.822;9.304;2023-03-01T15:04:18;8.30;85.60
1534;DHT22;760;48.822;9.304;2023-03-01T15:06:45;8.20;85.70
1534;DHT22;760;48.822;9.304;2023-03-01T15:09:15;8.20;85.10
1534;DHT22;760;48.822;9.304;2023-03-01T15:11:42;8.30;85.60
1534;DHT22;760;48.822;9.304;2023-03-01T15:14:42;8.30;85.20
1534;DHT22;760;48.822;9.304;2023-03-01T15:17:37;8.40;85.50
1534;DHT22;760;48.822;9.304;2023-03-01T15:20:06;8.40;84.90
1534;DHT22;760;48.822;9.304;2023-03-01T15:22:32;8.40;84.50
1534;DHT22;760;48.822;9.304;2023-03-01T15:24:58;8.40;84.50
1534;DHT22;760;48.822;9.304;2023-03-01T15:27:25;8.40;84.20
1534;DHT22;760;48.822;9.304;2023-03-01T15:29:57;8.30;84.20
1534;DHT22;760;48.822;9.304;2023-03-01T15:32:31;8.30;84.40
1534;DHT22;760;48.822;9.304;2023-03-01T15:35:01;8.30;84.40
1534;DHT22;760;48.822;9.304;2023-03-01T15:37:48;8.20;84.40
1534;DHT22;760;48.822;9.304;2023-03-01T15:40:23;8.20;84.40
1534;DHT22;760;48.822;9.304;2023-03-01T15:42:57;8.20;84.30
1534;DHT22;760;48.822;9.304;2023-03-01T15:45:25;8.20;84.80
1534;DHT22;760;48.822;9.304;2023-03-01T15:50:28;8.10;84.00
1534;DHT22;760;48.822;9.304;2023-03-01T15:52:55;8.10;84.00
1534;DHT22;760;48.822;9.304;2023-03-01T15:55:24;8.10;84.10
1534;DHT22;760;48.822;9.304;2023-03-01T15:58:03;8.10;84.10
1534;DHT22;760;48.822;9.304;2023-03-01T16:00:30;8.00;84.70
1534;DHT22;760;48.822;9.304;2023-03-01T16:02:56;8.00;84.00
1534;DHT22;760;48.822;9.304;2023-03-01T16:05:27;8.00;83.90
1534;DHT22;760;48.822;9.304;2023-03-01T16:07:54;7.90;83.70
1534;DHT22;760;48.822;9.304;2023-03-01T16:10:20;7.90;83.50
1534;DHT22;760;48.822;9.304;2023-03-01T16:12:46;7.90;83.60
1534;DHT22;760;48.822;9.304;2023-03-01T16:15:22;7.90;83.90
1534;DHT22;760;48.822;9.304;2023-03-01T16:17:48;7.80;83.50
1534;DHT22;760;48.822;9.304;2023-03-01T16:20:14;7.80;83.60
1534;DHT22;760;48.822;9.304;2023-03-01T16:22:42;7.80;83.70
1534;DHT22;760;48.822;9.304;2023-03-01T16:25:12;7.80;84.00
1534;DHT22;760;48.822;9.304;2023-03-01T16:27:42;7.70;84.00
1534;DHT22;760;48.822;9.304;2023-03-01T16:30:08;7.70;84.10
1534;DHT22;760;48.822;9.304;2023-03-01T16:32:41;7.70;84.10
1534;DHT22;760;48.822;9.304;2023-03-01T16:35:08;7.60;84.40
1534;DHT22;760;48.822;9.304;2023-03-01T16:37:35;7.60;84.40
1534;DHT22;760;48.822;9.304;2023-03-01T16:40:01;7.60;84.50
1534;DHT22;760;48.822;9.304;2023-03-01T16:42:36;7.60;84.70
1534;DHT22;760;48.822;9.304;2023-03-01T16:45:03;7.50;84.90
1534;DHT22;760;48.822;9.304;2023-03-01T16:47:29;7.50;85.20
1534;DHT22;760;48.822;9.304;2023-03-01T16:49:55;7.40;85.50
1534;DHT22;760;48.822;9.304;2023-03-01T16:52:21;7.40;85.80
1534;DHT22;760;48.822;9.304;2023-03-01T16:54:47;7.30;86.00
1534;DHT22;760;48.822;9.304;2023-03-01T16:57:13;7.30;86.20
1534;DHT22;760;48.822;9.304;2023-03-01T16:59:39;7.30;86.40
1534;DHT22;760;48.822;9.304;2023-03-01T17:02:08;7.20;86.30
1534;DHT22;760;48.822;9.304;2023-03-01T17:04:35;7.20;86.60
1534;DHT22;760;48.822;9.304;2023-03-01T17:07:01;7.10;86.70
1534;DHT22;760;48.822;9.304;2023-03-01T17:09:27;7.10;86.90
1534;DHT22;760;48.822;9.304;2023-03-01T17:11:52;7.10;87.20
1534;DHT22;760;48.822;9.304;2023-03-01T17:14:19;7.00;87.60
1534;DHT22;760;48.822;9.304;2023-03-01T17:16:45;6.90;87.80
1534;DHT22;760;48.822;9.304;2023-03-01T17:19:11;6.90;88.00
1534;DHT22;760;48.822;9.304;2023-03-01T17:21:38;6.80;88.30
1534;DHT22;760;48.822;9.304;2023-03-01T17:24:04;6.80;88.80
1534;DHT22;760;48.822;9.304;2023-03-01T17:26:29;6.70;89.10
1534;DHT22;760;48.822;9.304;2023-03-01T17:28:56;6.70;89.30
1534;DHT22;760;48.822;9.304;2023-03-01T17:31:23;6.60;89.30
1534;DHT22;760;48.822;9.304;2023-03-01T17:33:49;6.50;89.80
1534;DHT22;760;48.822;9.304;2023-03-01T17:36:16;6.40;90.20
1534;DHT22;760;48.822;9.304;2023-03-01T17:38:42;6.30;90.40
1534;DHT22;760;48.822;9.304;2023-03-01T17:41:08;6.20;90.70
1534;DHT22;760;48.822;9.304;2023-03-01T17:43:36;6.20;90.80
1534;DHT22;760;48.822;9.304;2023-03-01T17:46:02;6.10;91.00
1534;DHT22;760;48.822;9.304;2023-03-01T17:48:28;6.00;91.10
1534;DHT22;760;48.822;9.304;2023-03-01T17:50:54;6.00;91.30
1534;DHT22;760;48.822;9.304;2023-03-01T17:53:20;5.90;91.50
1534;DHT22;760;48.822;9.304;2023-03-01T17:55:46;5.80;91.80
1534;DHT22;760;48.822;9.304;2023-03-01T17:58:18;5.70;92.00
1534;DHT22;760;48.822;9.304;2023-03-01T18:00:47;5.70;92.00
1534;DHT22;760;48.822;9.304;2023-03-01T18:03:14;5.60;92.10
1534;DHT22;760;48.822;9.304;2023-03-01T18:05:39;5.60;92.20
1534;DHT22;760;48.822;9.304;2023-03-01T18:08:05;5.60;92.20
1534;DHT22;760;48.822;9.304;2023-03-01T18:10:32;5.50;92.30
1534;DHT22;760;48.822;9.304;2023-03-01T18:12:58;5.50;92.80
1534;DHT22;760;48.822;9.304;2023-03-01T18:15:24;5.40;92.50
1534;DHT22;760;48.822;9.304;2023-03-01T18:17:49;5.40;92.70
1534;DHT22;760;48.822;9.304;2023-03-01T18:20:15;5.30;92.70
1534;DHT22;760;48.822;9.304;2023-03-01T18:22:42;5.30;92.90
1534;DHT22;760;48.822;9.304;2023-03-01T18:25:08;5.20;92.90
1534;DHT22;760;48.822;9.304;2023-03-01T18:27:33;5.20;93.00
1534;DHT22;760;48.822;9.304;2023-03-01T18:30:01;5.10;93.10
1534;DHT22;760;48.822;9.304;2023-03-01T18:32:27;5.10;93.10
1534;DHT22;760;48.822;9.304;2023-03-01T18:34:53;5.00;93.10
1534;DHT22;760;48.822;9.304;2023-03-01T18:37:19;5.00;93.40
1534;DHT22;760;48.822;9.304;2023-03-01T18:39:44;4.90;93.30
1534;DHT22;760;48.822;9.304;2023-03-01T18:42:10;4.90;93.20
1534;DHT22;760;48.822;9.304;2023-03-01T18:44:36;4.80;93.40
1534;DHT22;760;48.822;9.304;2023-03-01T18:47:02;4.80;93.50
1534;DHT22;760;48.822;9.304;2023-03-01T18:49:28;4.70;93.70
1534;DHT22;760;48.822;9.304;2023-03-01T18:51:54;4.60;93.90
1534;DHT22;760;48.822;9.304;2023-03-01T18:54:19;4.60;94.10
1534;DHT22;760;48.822;9.304;2023-03-01T18:56:45;4.60;94.20
1534;DHT22;760;48.822;9.304;2023-03-01T18:59:11;4.60;94.40
1534;DHT22;760;48.822;9.304;2023-03-01T19:01:37;4.50;94.50
1534;DHT22;760;48.822;9.304;2023-03-01T19:04:03;4.60;94.50
1534;DHT22;760;48.822;9.304;2023-03-01T19:06:31;4.60;94.40
1534;DHT22;760;48.822;9.304;2023-03-01T19:08:57;4.50;94.50
1534;DHT22;760;48.822;9.304;2023-03-01T19:11:23;4.50;94.80
1534;DHT22;760;48.822;9.304;2023-03-01T19:13:52;4.50;94.80
1534;DHT22;760;48.822;9.304;2023-03-01T19:16:22;4.50;95.10
1534;DHT22;760;48.822;9.304;2023-03-01T19:18:48;4.50;95.10
1534;DHT22;760;48.822;9.304;2023-03-01T19:21:17;4.40;95.10
1534;DHT22;760;48.822;9.304;2023-03-01T19:23:43;4.40;95.30
1534;DHT22;760;48.822;9.304;2023-03-01T19:26:13;4.40;95.40
1534;DHT22;760;48.822;9.304;2023-03-01T19:28:39;4.40;95.50
1534;DHT22;760;48.822;9.304;2023-03-01T19:31:08;4.50;95.60
1534;DHT22;760;48.822;9.304;2023-03-01T19:33:34;4.40;95.50
1534;DHT22;760;48.822;9.304;2023-03-01T19:36:00;4.40;95.70
1534;DHT22;760;48.822;9.304;2023-03-01T19:38:27;4.30;95.70
1534;DHT22;760;48.822;9.304;2023-03-01T19:40:53;4.30;95.80
1534;DHT22;760;48.822;9.304;2023-03-01T19:43:19;4.30;95.80
1534;DHT22;760;48.822;9.304;2023-03-01T19:45:50;4.30;95.90
1534;DHT22;760;48.822;9.304;2023-03-01T19:48:16;4.30;96.10
1534;DHT22;760;48.822;9.304;2023-03-01T19:50:42;4.30;96.20
1534;DHT22;760;48.822;9.304;2023-03-01T19:53:09;4.30;96.50
1534;DHT22;760;48.822;9.304;2023-03-01T19:55:36;4.30;96.20
1534;DHT22;760;48.822;9.304;2023-03-01T19:58:02;4.30;96.30
1534;DHT22;760;48.822;9.304;2023-03-01T20:00:28;4.30;96.50
1534;DHT22;760;48.822;9.304;2023-03-01T20:02:53;4.30;96.50
1534;DHT22;760;48.822;9.304;2023-03-01T20:05:19;4.30;96.50
1534;DHT22;760;48.822;9.304;2023-03-01T20:07:44;4.40;96.60
1534;DHT22;760;48.822;9.304;2023-03-01T20:10:12;4.40;96.60
1534;DHT22;760;48.822;9.304;2023-03-01T20:12:37;4.50;96.70
1534;DHT22;760;48.822;9.304;2023-03-01T20:15:03;4.60;96.60
1534;DHT22;760;48.822;9.304;2023-03-01T20:17:29;4.70;96.60
1534;DHT22;760;48.822;9.304;2023-03-01T20:19:54;4.70;96.40
1534;DHT22;760;48.822;9.304;2023-03-01T20:22:20;4.80;96.40
1534;DHT22;760;48.822;9.304;2023-03-01T20:24:46;4.90;96.40
1534;DHT22;760;48.822;9.304;2023-03-01T20:27:11;4.90;96.20
1534;DHT22;760;48.822;9.304;2023-03-01T20:29:37;4.90;96.20
1534;DHT22;760;48.822;9.304;2023-03-01T20:32:03;4.90;96.10
1534;DHT22;760;48.822;9.304;2023-03-01T20:34:29;4.90;96.10
1534;DHT22;760;48.822;9.304;2023-03-01T20:36:54;4.90;96.20
1534;DHT22;760;48.822;9.304;2023-03-01T20:39:21;4.90;96.20
1534;DHT22;760;48.822;9.304;2023-03-01T20:41:46;4.90;96.60
1534;DHT22;760;48.822;9.304;2023-03-01T20:44:12;4.80;96.40
1534;DHT22;760;48.822;9.304;2023-03-01T20:46:38;4.80;96.60
1534;DHT22;760;48.822;9.304;2023-03-01T20:49:04;4.80;96.70
1534;DHT22;760;48.822;9.304;2023-03-01T20:51:30;4.80;96.60
1534;DHT22;760;48.822;9.304;2023-03-01T20:53:56;4.70;96.70
1534;DHT22;760;48.822;9.304;2023-03-01T20:56:22;4.70;96.80
1534;DHT22;760;48.822;9.304;2023-03-01T20:58:48;4.70;96.80
1534;DHT22;760;48.822;9.304;2023-03-01T21:01:16;4.70;96.90
1534;DHT22;760;48.822;9.304;2023-03-01T21:03:42;4.70;96.90
1534;DHT22;760;48.822;9.304;2023-03-01T21:06:08;4.70;96.90
1534;DHT22;760;48.822;9.304;2023-03-01T21:08:34;4.70;96.90
1534;DHT22;760;48.822;9.304;2023-03-01T21:11:00;4.70;96.90
1534;DHT22;760;48.822;9.304;2023-03-01T21:13:27;4.70;97.00
1534;DHT22;760;48.822;9.304;2023-03-01T21:16:02;4.60;97.10
1534;DHT22;760;48.822;9.304;2023-03-01T21:18:30;4.50;97.10
1534;DHT22;760;48.822;9.304;2023-03-01T21:21:01;4.40;97.30
1534;DHT22;760;48.822;9.304;2023-03-01T21:23:32;4.40;97.40
1534;DHT22;760;48.822;9.304;2023-03-01T21:28:33;4.30;97.40
1534;DHT22;760;48.822;9.304;2023-03-01T21:31:09;4.20;97.50
1534;DHT22;760;48.822;9.304;2023-03-01T21:33:35;4.10;97.50
1534;DHT22;760;48.822;9.304;2023-03-01T21:36:04;4.10;98.10
1534;DHT22;760;48.822;9.304;2023-03-01T21:38:32;4.00;98.50
1534;DHT22;760;48.822;9.304;2023-03-01T21:41:08;4.00;98.80
1534;DHT22;760;48.822;9.304;2023-03-01T21:43:36;4.00;98.70
1534;DHT22;760;48.822;9.304;2023-03-01T21:46:05;4.00;98.80
1534;DHT22;760;48.822;9.304;2023-03-01T21:48:33;4.00;98.90
1534;DHT22;760;48.822;9.304;2023-03-01T21:51:00;4.00;99.00
1534;DHT22;760;48.822;9.304;2023-03-01T21:53:28;4.10;99.00
1534;DHT22;760;48.822;9.304;2023-03-01T21:55:54;4.10;99.10
1534;DHT22;760;48.822;9.304;2023-03-01T21:58:20;4.10;99.10
1534;DHT22;760;48.822;9.304;2023-03-01T22:00:47;4.10;99.10
1534;DHT22;760;48.822;9.304;2023-03-01T22:03:13;4.10;99.00
1534;DHT22;760;48.822;9.304;2023-03-01T22:05:39;4.10;99.10
1534;DHT22;760;48.822;9.304;2023-03-01T22:08:05;4.10;99.10
1534;DHT22;760;48.822;9.304;2023-03-01T22:10:31;4.10;99.00
1534;DHT22;760;48.822;9.304;2023-03-01T22:12:58;4.10;98.90
1534;DHT22;760;48.822;9.304;2023-03-01T22:15:26;4.10;99.10
1534;DHT22;760;48.822;9.304;2023-03-01T22:17:52;4.10;99.30
1534;DHT22;760;48.822;9.304;2023-03-01T22:20:19;4.10;99.20
1534;DHT22;760;48.822;9.304;2023-03-01T22:22:45;4.00;99.20
1534;DHT22;760;48.822;9.304;2023-03-01T22:25:11;3.90;99.50
1534;DHT22;760;48.822;9.304;2023-03-01T22:27:37;3.90;99.70
1534;DHT22;760;48.822;9.304;2023-03-01T22:30:07;3.80;99.90
1534;DHT22;760;48.822;9.304;2023-03-01T22:32:34;3.80;99.70
1534;DHT22;760;48.822;9.304;2023-03-01T22:34:59;3.70;99.70
1534;DHT22;760;48.822;9.304;2023-03-01T22:37:25;3.70;99.90
1534;DHT22;760;48.822;9.304;2023-03-01T22:39:51;3.60;99.90
1534;DHT22;760;48.822;9.304;2023-03-01T22:42:17;3.60;99.90
1534;DHT22;760;48.822;9.304;2023-03-01T22:44:42;3.60;99.90
1534;DHT22;760;48.822;9.304;2023-03-01T22:47:08;3.50;99.90
1534;DHT22;760;48.822;9.304;2023-03-01T22:49:33;3.50;99.90
1534;DHT22;760;48.822;9.304;2023-03-01T22:51:59;3.50;99.90
1534;DHT22;760;48.822;9.304;2023-03-01T22:54:25;3.40;99.90
1534;DHT22;760;48.822;9.304;2023-03-01T22:56:51;3.40;99.90
1534;DHT22;760;48.822;9.304;2023-03-01T22:59:18;3.40;99.90
